Time;durP1;ratioP1;P1;durP2;ratioP2;P2;SDS_P1;SDS_P2;PMS_P1;PMS_P2;Temp;Humidity;BMP_temperature;BMP_pressure;BME280_temperature;BME280_humidity;BME280_pressure;Samples;Min_cycle;Max_cycle;Signal;HPM_P1;HPM_P2
2023/12/28 00:01:10;;;;;;;9.95;7.85;;;;;;;0.89;100.00;98208.50;1224369;75;2938818;-65
2023/12/28 00:03:43;;;;;;;8.65;7.65;;;;;;;0.95;100.00;98201.53;1223475;75;2927993;-63
2023/12/28 00:06:16;;;;;;;8.35;7.05;;;;;;;0.93;100.00;98196.53;1224230;75;2919847;-66
2023/12/28 00:08:51;;;;;;;8.50;6.45;;;;;;;0.83;100.00;98192.00;1224061;75;2922236;-64
2023/12/28 00:11:24;;;;;;;8.40;6.70;;;;;;;0.99;100.00;98194.19;1224150;75;2926037;-65
2023/12/28 00:13:57;;;;;;;8.25;6.25;;;;;;;1.07;100.00;98201.03;1224678;75;2920144;-63
2023/12/28 00:16:32;;;;;;;8.65;6.00;;;;;;;1.10;100.00;98194.84;1222249;75;2926825;-66
2023/12/28 00:19:05;;;;;;;9.40;6.15;;;;;;;1.12;100.00;98192.53;1224882;75;2918825;-64
2023/12/28 00:21:37;;;;;;;7.40;5.70;;;;;;;1.14;100.00;98184.03;1224215;75;2922527;-64
2023/12/28 00:24:13;;;;;;;8.50;5.55;;;;;;;1.18;100.00;98185.56;1224668;75;2920237;-64
2023/12/28 00:26:45;;;;;;;7.25;5.95;;;;;;;1.18;100.00;98190.94;1223930;75;2932491;-64
2023/12/28 00:29:18;;;;;;;9.00;6.15;;;;;;;1.19;100.00;98186.31;1223964;75;2919962;-64
2023/12/28 00:31:51;;;;;;;9.20;7.45;;;;;;;0.94;100.00;98195.38;1223688;75;2921304;-64
2023/12/28 00:34:24;;;;;;;10.75;8.65;;;;;;;0.98;100.00;98200.72;1224030;75;2927055;-66
2023/12/28 00:36:57;;;;;;;10.65;8.15;;;;;;;1.18;100.00;98200.94;1223579;75;2926053;-67
2023/12/28 00:39:32;;;;;;;9.05;8.10;;;;;;;1.12;100.00;98197.16;1224664;75;2918251;-65
2023/12/28 00:42:05;;;;;;;10.55;9.30;;;;;;;0.92;100.00;98195.00;1224172;75;2919618;-65
2023/12/28 00:44:38;;;;;;;16.05;11.55;;;;;;;0.85;100.00;98203.91;1223325;75;2920239;-63
2023/12/28 00:47:11;;;;;;;15.40;11.60;;;;;;;0.92;100.00;98197.72;1224443;75;2913681;-64
2023/12/28 00:49:44;;;;;;;12.50;9.05;;;;;;;1.14;100.00;98209.06;1223663;75;2922946;-63
2023/12/28 00:52:17;;;;;;;9.50;8.50;;;;;;;1.23;100.00;98197.84;1222857;75;2929816;-62
2023/12/28 00:54:52;;;;;;;8.95;6.90;;;;;;;1.21;100.00;98195.53;1224164;75;2938748;-64
2023/12/28 00:57:25;;;;;;;9.05;7.30;;;;;;;1.15;100.00;98193.66;1224129;75;2923706;-64
2023/12/28 00:59:58;;;;;;;9.85;6.80;;;;;;;1.15;100.00;98193.66;1222830;75;2931749;-65
2023/12/28 01:02:31;;;;;;;8.95;7.15;;;;;;;1.08;100.00;98191.78;1223932;75;2939235;-63
2023/12/28 01:05:04;;;;;;;10.35;8.90;;;;;;;0.83;100.00;98195.44;1224284;75;2924587;-63
2023/12/28 01:07:36;;;;;;;11.50;9.35;;;;;;;0.78;100.00;98189.72;1224229;75;2921553;-62
2023/12/28 01:10:12;;;;;;;12.15;8.30;;;;;;;0.89;100.00;98195.03;1224414;75;2920105;-66
2023/12/28 01:12:45;;;;;;;14.65;11.05;;;;;;;0.42;100.00;98190.72;1224516;75;2938298;-64
2023/12/28 01:15:20;;;;;;;12.95;10.40;;;;;;;0.56;100.00;98191.81;1223269;75;2959608;-66
2023/12/28 01:17:53;;;;;;;10.80;9.45;;;;;;;0.55;100.00;98192.97;1224553;75;2916701;-65
2023/12/28 01:20:26;;;;;;;12.00;9.35;;;;;;;0.38;100.00;98186.53;1224405;75;2927254;-67
2023/12/28 01:22:58;;;;;;;10.25;7.75;;;;;;;0.55;100.00;98185.63;1223448;75;2925859;-66
2023/12/28 01:25:34;;;;;;;8.05;7.10;;;;;;;0.64;100.00;98185.97;1224259;75;2918963;-66
2023/12/28 01:28:07;;;;;;;9.15;7.15;;;;;;;0.45;100.00;98191.09;1223155;75;2924574;-64
2023/12/28 01:30:40;;;;;;;10.45;7.80;;;;;;;0.54;100.00;98196.81;1224064;75;2925057;-64
2023/12/28 01:33:13;;;;;;;10.20;7.45;;;;;;;0.62;100.00;98198.31;1223680;75;2928597;-64
2023/12/28 01:35:45;;;;;;;10.35;8.70;;;;;;;0.37;100.00;98185.75;1223999;75;2924675;-68
2023/12/28 01:38:18;;;;;;;8.30;7.10;;;;;;;0.62;100.00;98188.28;1223664;75;2924426;-66
2023/12/28 01:40:54;;;;;;;11.50;8.55;;;;;;;0.28;100.00;98182.72;1223676;75;2922323;-63
2023/12/28 01:43:27;;;;;;;13.15;9.90;;;;;;;0.25;100.00;98182.78;1223742;75;2925393;-65
2023/12/28 01:46:00;;;;;;;13.80;11.05;;;;;;;0.13;100.00;98183.97;1223021;75;2922549;-67
2023/12/28 01:48:33;;;;;;;12.65;10.15;;;;;;;0.08;100.00;98170.94;1224073;75;2923450;-64
2023/12/28 01:51:07;;;;;;;11.65;9.80;;;;;;;0.18;100.00;98173.56;1223852;75;2922710;-64
2023/12/28 01:53:41;;;;;;;11.90;9.80;;;;;;;0.26;100.00;98176.97;1223812;75;2919533;-66
2023/12/28 01:56:18;;;;;;;12.85;10.00;;;;;;;0.06;100.00;98174.00;1224032;75;2919733;-67
2023/12/28 01:58:52;;;;;;;13.00;10.70;;;;;;;-0.09;100.00;98172.56;1224267;75;2931172;-65
2023/12/28 02:01:26;;;;;;;12.20;10.30;;;;;;;-0.09;100.00;98177.94;1223798;75;2922054;-64
2023/12/28 02:04:00;;;;;;;12.90;10.90;;;;;;;-0.23;100.00;98173.38;1224042;75;2921228;-64
2023/12/28 02:06:33;;;;;;;14.00;11.15;;;;;;;-0.25;100.00;98181.81;1224171;75;2938837;-64
2023/12/28 02:09:06;;;;;;;12.30;10.10;;;;;;;-0.20;100.00;98185.28;1223431;75;2925621;-65
2023/12/28 02:11:42;;;;;;;14.00;11.30;;;;;;;-0.39;100.00;98170.34;1224343;75;2923384;-67
2023/12/28 02:14:15;;;;;;;19.10;14.45;;;;;;;-0.68;100.00;98159.66;1224729;75;2925388;-66
2023/12/28 02:16:53;;;;;;;16.25;12.45;;;;;;;-0.25;100.00;98151.47;1222930;75;2930790;-66
2023/12/28 02:19:40;;;;;;;;;;;;;;;-0.56;100.00;98145.81;1225720;75;2923932;-63
2023/12/28 02:22:17;;;;;;;14.55;12.15;;;;;;;-0.49;100.00;98140.41;1223955;75;2914738;-65
2023/12/28 02:25:11;;;;;;;11.70;10.25;;;;;;;-0.41;100.00;98143.06;1224414;75;2933579;-63
2023/12/28 02:27:46;;;;;;;13.40;11.90;;;;;;;-0.64;100.00;98133.56;1223631;75;2921913;-63
2023/12/28 02:30:21;;;;;;;12.05;10.65;;;;;;;-0.43;100.00;98130.03;1224065;75;2920365;-67
2023/12/28 02:33:12;;;;;;;9.75;8.45;;;;;;;-0.46;100.00;98136.16;1223617;75;2922761;-65
2023/12/28 02:35:49;;;;;;;11.20;10.00;;;;;;;-0.54;100.00;98134.66;1223934;75;2938563;-68
2023/12/28 02:38:23;;;;;;;11.25;9.60;;;;;;;-0.38;100.00;98136.94;1224018;75;2923938;-62
2023/12/28 02:40:59;;;;;;;9.15;8.05;;;;;;;-0.15;100.00;98121.06;1223666;75;2955786;-64
2023/12/28 02:43:33;;;;;;;8.50;7.20;;;;;;;-0.11;100.00;98126.44;1224062;75;2906248;-65
2023/12/28 02:46:06;;;;;;;7.70;6.60;;;;;;;-0.15;100.00;98122.97;1223003;75;2937280;-64
2023/12/28 02:48:39;;;;;;;6.75;5.70;;;;;;;-0.08;100.00;98115.63;1222844;75;2933194;-65
2023/12/28 02:51:12;;;;;;;6.95;5.80;;;;;;;-0.35;100.00;98111.94;1223477;75;2924659;-65
2023/12/28 02:53:45;;;;;;;8.05;7.00;;;;;;;-0.62;100.00;98120.50;1223685;75;2940247;-67
2023/12/28 02:56:20;;;;;;;8.60;7.70;;;;;;;-0.66;100.00;98108.97;1223276;75;2928524;-63
2023/12/28 02:58:53;;;;;;;7.45;6.65;;;;;;;-0.45;100.00;98100.81;1224526;75;2922282;-64
2023/12/28 03:01:27;;;;;;;9.55;8.35;;;;;;;-0.79;100.00;98105.19;1223942;75;2921333;-66
2023/12/28 03:04:00;;;;;;;10.35;8.50;;;;;;;-0.86;100.00;98100.59;1225158;75;2918768;-63
2023/12/28 03:06:32;;;;;;;8.85;7.85;;;;;;;-0.62;100.00;98100.91;1223417;75;2920178;-66
2023/12/28 03:09:05;;;;;;;8.55;7.40;;;;;;;-0.70;100.00;98105.53;1224362;75;2953299;-63
2023/12/28 03:11:41;;;;;;;8.10;6.80;;;;;;;-0.67;100.00;98096.69;1223886;75;2927951;-65
2023/12/28 03:14:14;;;;;;;6.55;5.85;;;;;;;-0.77;100.00;98094.78;1224169;75;2925737;-65
2023/12/28 03:16:46;;;;;;;7.85;6.95;;;;;;;-0.81;100.00;98091.38;1223724;75;2930441;-66
2023/12/28 03:19:19;;;;;;;8.60;6.75;;;;;;;-0.95;100.00;98092.16;1223783;75;2932534;-64
2023/12/28 03:21:52;;;;;;;12.45;10.85;;;;;;;-1.09;100.00;98090.25;1223853;75;2930372;-64
2023/12/28 03:24:25;;;;;;;10.20;8.80;;;;;;;-1.03;100.00;98087.94;1223876;75;2916640;-65
2023/12/28 03:27:00;;;;;;;11.25;9.35;;;;;;;-1.05;100.00;98093.72;1223287;75;2921063;-67
2023/12/28 03:29:33;;;;;;;9.35;8.35;;;;;;;-0.92;100.00;98078.69;1223691;75;2958814;-65
2023/12/28 03:32:06;;;;;;;11.85;9.60;;;;;;;-1.12;100.00;98082.97;1224031;75;2922101;-64
2023/12/28 03:34:39;;;;;;;11.50;10.05;;;;;;;-1.16;100.00;98082.22;1223915;75;2927929;-65
2023/12/28 03:37:12;;;;;;;13.10;11.20;;;;;;;-1.12;100.00;98066.88;1223937;75;2926124;-66
2023/12/28 03:39:45;;;;;;;10.95;8.70;;;;;;;-1.03;100.00;98064.53;1223774;75;2922036;-64
2023/12/28 03:42:21;;;;;;;13.30;11.00;;;;;;;-1.40;100.00;98056.94;1223557;75;2924008;-64
2023/12/28 03:44:54;;;;;;;13.00;11.05;;;;;;;-1.25;100.00;98049.59;1222170;75;2938228;-65
2023/12/28 03:47:27;;;;;;;13.05;11.40;;;;;;;-1.30;100.00;98056.94;1222787;75;2918425;-65
2023/12/28 03:50:00;;;;;;;15.05;11.30;;;;;;;-1.35;100.00;98057.31;1225056;75;2921938;-66
2023/12/28 03:52:32;;;;;;;14.95;12.40;;;;;;;-1.39;100.00;98053.09;1223908;75;2921782;-66
2023/12/28 03:55:06;;;;;;;11.60;10.40;;;;;;;-1.31;100.00;98052.69;1224471;75;2926511;-68
2023/12/28 03:57:42;;;;;;;13.20;11.20;;;;;;;-1.35;100.00;98051.94;1224374;75;2921666;-65
2023/12/28 04:00:16;;;;;;;10.10;8.75;;;;;;;-1.28;100.00;98045.78;1224221;75;2923537;-63
2023/12/28 04:02:49;;;;;;;10.60;9.35;;;;;;;-1.26;100.00;98051.53;1224046;75;2898077;-63
2023/12/28 04:05:22;;;;;;;8.95;7.40;;;;;;;-1.16;100.00;98044.59;1223617;75;2925114;-64
2023/12/28 04:07:54;;;;;;;11.00;9.05;;;;;;;-1.38;100.00;98044.66;1223821;75;2924911;-64
2023/12/28 04:10:37;;;;;;;9.40;8.40;;;;;;;-1.46;100.00;98042.38;1223318;75;2930168;-62
2023/12/28 04:13:12;;;;;;;8.90;8.00;;;;;;;-1.38;100.00;98041.97;1224350;75;2915498;-66
2023/12/28 04:15:46;;;;;;;8.05;7.00;;;;;;;-1.37;100.00;98040.03;1222870;75;2926983;-64
2023/12/28 04:18:19;;;;;;;6.85;5.95;;;;;;;-1.37;100.00;98034.66;1222641;75;2923308;-65
2023/12/28 04:20:52;;;;;;;6.70;5.70;;;;;;;-1.39;100.00;98023.56;1223121;67;2915732;-66
2023/12/28 04:23:25;;;;;;;7.10;5.60;;;;;;;-1.37;100.00;98029.28;1224153;75;2919625;-64
2023/12/28 04:25:58;;;;;;;8.90;8.00;;;;;;;-1.66;100.00;98023.97;1224023;75;2921925;-64
2023/12/28 04:28:34;;;;;;;9.35;8.25;;;;;;;-1.55;100.00;98026.66;1222968;75;2920269;-65
2023/12/28 04:31:08;;;;;;;9.30;7.35;;;;;;;-1.62;100.00;98024.72;1224036;75;2923753;-63
2023/12/28 04:33:41;;;;;;;8.10;6.60;;;;;;;-1.56;100.00;98025.88;1223420;75;2923221;-64
2023/12/28 04:36:14;;;;;;;6.85;6.00;;;;;;;-1.60;100.00;98024.34;1223684;75;2915457;-65
2023/12/28 04:38:47;;;;;;;7.80;6.65;;;;;;;-1.77;100.00;98023.97;1223376;75;2925814;-66
2023/12/28 04:41:19;;;;;;;12.80;11.50;;;;;;;-1.85;100.00;98027.81;1223515;75;2945058;-68
2023/12/28 04:43:55;;;;;;;10.45;9.35;;;;;;;-1.84;100.00;98040.06;1223627;75;2934894;-65
2023/12/28 04:46:28;;;;;;;13.05;11.05;;;;;;;-1.95;100.00;98050.81;1223212;75;2936166;-62
2023/12/28 04:49:01;;;;;;;11.70;10.35;;;;;;;-1.85;100.00;98049.28;1224239;75;2923983;-65
2023/12/28 04:51:34;;;;;;;14.25;12.30;;;;;;;-1.95;100.00;98050.03;1223832;75;2931903;-62
2023/12/28 04:54:06;;;;;;;13.10;10.70;;;;;;;-1.99;100.00;98044.66;1223195;75;2930235;-65
2023/12/28 04:56:39;;;;;;;14.70;11.30;;;;;;;-1.88;100.00;98055.41;1223562;75;2935797;-62
2023/12/28 04:59:15;;;;;;;11.15;9.55;;;;;;;-1.89;100.00;98043.13;1223184;75;2926052;-62
2023/12/28 05:01:48;;;;;;;10.10;8.95;;;;;;;-1.88;100.00;98047.34;1222596;75;2926811;-64
2023/12/28 05:04:20;;;;;;;9.70;7.60;;;;;;;-1.86;100.00;98042.38;1223834;75;2925046;-64
2023/12/28 05:06:53;;;;;;;11.05;9.20;;;;;;;-2.01;100.00;98038.16;1223663;75;2931132;-63
2023/12/28 05:09:26;;;;;;;11.00;9.15;;;;;;;-2.00;100.00;98035.06;1223485;75;2934961;-65
2023/12/28 05:12:00;;;;;;;10.85;8.40;;;;;;;-2.03;100.00;98040.44;1223465;75;2933947;-64
2023/12/28 05:14:36;;;;;;;11.20;8.60;;;;;;;-2.13;100.00;98041.22;1223395;75;2923958;-63
2023/12/28 05:17:08;;;;;;;12.85;10.65;;;;;;;-2.21;100.00;98041.19;1222759;75;2928394;-63
2023/12/28 05:19:41;;;;;;;13.00;10.45;;;;;;;-2.13;100.00;98046.56;1223464;75;2931339;-63
2023/12/28 05:22:14;;;;;;;12.95;10.75;;;;;;;-2.15;100.00;98047.69;1223227;75;2927528;-63
2023/12/28 05:24:47;;;;;;;10.80;9.65;;;;;;;-2.02;100.00;98048.13;1222953;75;2932156;-64
2023/12/28 05:27:20;;;;;;;18.65;14.75;;;;;;;-2.22;100.00;98039.66;1223902;75;2922689;-66
2023/12/28 05:29:55;;;;;;;19.05;14.05;;;;;;;-2.26;100.00;98036.22;1223239;75;2931842;-64
2023/12/28 05:32:28;;;;;;;15.65;13.35;;;;;;;-2.34;100.00;98047.28;1222414;75;2937095;-62
2023/12/28 05:35:01;;;;;;;16.60;13.40;;;;;;;-2.27;100.00;98044.63;1222849;75;2954690;-65
2023/12/28 05:37:34;;;;;;;17.10;13.10;;;;;;;-2.37;100.00;98043.47;1223555;75;2924764;-66
2023/12/28 05:40:09;;;;;;;15.85;12.85;;;;;;;-2.30;100.00;98040.78;1222884;75;2926408;-66
2023/12/28 05:42:42;;;;;;;12.05;10.25;;;;;;;-2.04;100.00;98046.97;1223208;75;2930131;-65
2023/12/28 05:45:18;;;;;;;11.25;9.75;;;;;;;-2.13;100.00;98044.66;1223022;75;2927216;-64
2023/12/28 05:47:51;;;;;;;12.25;10.30;;;;;;;-2.18;100.00;98043.09;1223707;75;2923740;-66
2023/12/28 05:50:24;;;;;;;11.25;9.10;;;;;;;-2.20;100.00;98056.13;1223547;75;2922722;-63
2023/12/28 05:52:57;;;;;;;13.25;9.80;;;;;;;-2.19;100.00;98046.94;1221379;75;2936811;-66
2023/12/28 05:55:29;;;;;;;10.15;8.20;;;;;;;-2.04;100.00;98052.34;1223127;75;2934516;-63
2023/12/28 05:58:02;;;;;;;13.40;9.70;;;;;;;-2.34;100.00;98063.38;1222786;75;2921544;-66
2023/12/28 06:00:38;;;;;;;10.40;8.75;;;;;;;-2.28;100.00;98057.28;1223306;75;2925089;-64
2023/12/28 06:03:11;;;;;;;10.90;9.15;;;;;;;-2.22;100.00;98054.97;1223030;75;2919908;-63
2023/12/28 06:05:44;;;;;;;9.80;8.45;;;;;;;-2.29;100.00;98047.69;1223983;75;2934131;-68
2023/12/28 06:08:17;;;;;;;9.05;7.80;;;;;;;-2.13;100.00;98054.63;1222701;75;2934717;-64
2023/12/28 06:10:50;;;;;;;8.65;6.90;;;;;;;-2.07;100.00;98047.72;1223574;75;2933571;-65
2023/12/28 06:13:22;;;;;;;7.05;6.35;;;;;;;-2.09;100.00;98045.44;1223634;75;2924216;-61
2023/12/28 06:15:58;;;;;;;7.15;6.30;;;;;;;-1.93;100.00;98055.78;1223525;75;2924508;-67
2023/12/28 06:18:31;;;;;;;6.20;5.60;;;;;;;-1.94;100.00;98046.97;1223490;75;2930061;-64
2023/12/28 06:21:06;;;;;;;6.15;5.45;;;;;;;-2.00;100.00;98050.41;1223664;75;2924011;-64
2023/12/28 06:23:38;;;;;;;6.00;4.80;;;;;;;-1.94;100.00;98060.38;1222678;75;2924165;-66
2023/12/28 06:26:11;;;;;;;6.75;5.45;;;;;;;-1.90;100.00;98055.03;1223221;75;2932304;-65
2023/12/28 06:28:44;;;;;;;7.35;6.40;;;;;;;-2.10;100.00;98059.22;1222640;75;2926599;-64
2023/12/28 06:31:20;;;;;;;8.05;6.90;;;;;;;-2.20;100.00;98060.72;1222707;75;2924589;-68
2023/12/28 06:33:53;;;;;;;10.70;8.90;;;;;;;-2.46;100.00;98065.25;1223043;75;2921348;-65
2023/12/28 06:36:26;;;;;;;14.05;10.60;;;;;;;-2.45;100.00;98068.72;1223336;75;2931135;-65
2023/12/28 06:38:58;;;;;;;13.10;10.55;;;;;;;-2.51;100.00;98076.34;1222034;75;2950932;-64
2023/12/28 06:41:32;;;;;;;12.90;10.35;;;;;;;-2.34;100.00;98076.78;1222676;75;2923499;-62
2023/12/28 06:44:05;;;;;;;15.95;9.00;;;;;;;-2.31;100.00;98068.72;1223093;75;2931334;-67
2023/12/28 06:46:40;;;;;;;9.65;8.05;;;;;;;-2.30;100.00;98066.84;1222647;75;2925391;-64
2023/12/28 06:49:13;;;;;;;10.45;9.05;;;;;;;-2.53;100.00;98075.94;1223105;75;2937964;-66
2023/12/28 06:51:46;;;;;;;12.00;9.35;;;;;;;-2.41;100.00;98077.53;1222452;75;2923879;-64
2023/12/28 06:54:22;;;;;;;9.65;8.05;;;;;;;-2.30;100.00;98083.69;1223401;75;2929063;-67
2023/12/28 06:56:54;;;;;;;9.55;7.90;;;;;;;-2.28;100.00;98076.03;1223536;75;2929816;-65
2023/12/28 06:59:27;;;;;;;9.15;7.90;;;;;;;-2.32;100.00;98079.84;1220708;75;2946389;-64
2023/12/28 07:02:03;;;;;;;7.70;6.95;;;;;;;-2.41;100.00;98077.53;1222736;75;2929259;-65
2023/12/28 07:04:35;;;;;;;7.85;6.90;;;;;;;-2.14;100.00;98080.69;1222261;75;3011655;-67
2023/12/28 07:07:08;;;;;;;5.35;4.75;;;;;;;-2.08;100.00;98089.88;1222968;75;2931948;-65
2023/12/28 07:09:41;;;;;;;5.80;5.05;;;;;;;-1.95;100.00;98079.53;1223926;75;2935090;-65
2023/12/28 07:12:14;;;;;;;9.80;7.80;;;;;;;-2.24;100.00;98087.53;1223137;75;2940405;-67
2023/12/28 07:14:47;;;;;;;6.75;5.85;;;;;;;-2.02;100.00;98077.63;1223396;83;2925782;-64
2023/12/28 07:17:22;;;;;;;6.80;5.75;;;;;;;-2.02;100.00;98076.84;1222652;75;2923352;-66
2023/12/28 07:19:55;;;;;;;7.25;6.15;;;;;;;-2.09;100.00;98087.56;1223007;75;2928365;-64
2023/12/28 07:22:28;;;;;;;7.95;6.35;;;;;;;-2.01;100.00;98087.19;1222016;75;2922212;-65
2023/12/28 07:25:01;;;;;;;7.90;6.50;;;;;;;-2.09;100.00;98087.56;1222084;75;2933888;-66
2023/12/28 07:27:34;;;;;;;26.30;17.80;;;;;;;-2.36;100.00;98091.34;1222095;75;2922001;-61
2023/12/28 07:30:09;;;;;;;16.35;13.15;;;;;;;-2.27;100.00;98092.88;1222471;75;2938400;-64
2023/12/28 07:32:45;;;;;;;14.35;11.10;;;;;;;-1.95;100.00;98098.31;1223599;75;2926129;-64
2023/12/28 07:35:18;;;;;;;13.45;9.40;;;;;;;-1.92;100.00;98092.22;1222226;75;2931429;-65
2023/12/28 07:37:51;;;;;;;14.20;10.95;;;;;;;-1.88;100.00;98089.50;1222691;75;2926739;-68
2023/12/28 07:40:24;;;;;;;11.95;9.60;;;;;;;-1.83;100.00;98092.59;1222841;75;2930669;-64
2023/12/28 07:42:57;;;;;;;11.70;9.00;;;;;;;-1.48;100.00;98096.44;1223101;75;2930644;-66
2023/12/28 07:45:30;;;;;;;15.20;11.30;;;;;;;-1.08;100.00;98097.19;1223052;75;2934894;-68
2023/12/28 07:48:05;;;;;;;11.25;9.15;;;;;;;0.32;100.00;98085.78;1222947;67;2927463;-64
2023/12/28 07:50:38;;;;;;;12.45;9.60;;;;;;;0.93;100.00;98090.66;1222838;75;2920999;-64
2023/12/28 07:53:11;;;;;;;10.80;8.70;;;;;;;1.24;100.00;98097.63;1223145;75;2932158;-65
2023/12/28 07:55:44;;;;;;;15.80;12.30;;;;;;;1.17;100.00;98100.41;1222928;75;2930016;-68
2023/12/28 07:58:18;;;;;;;14.30;10.75;;;;;;;1.52;100.00;98097.75;1222282;75;2936190;-67
2023/12/28 08:00:51;;;;;;;11.55;9.25;;;;;;;1.04;100.00;98100.16;1222720;75;2926328;-65
2023/12/28 08:03:27;;;;;;;9.90;8.50;;;;;;;0.40;100.00;98090.72;1222605;75;2920486;-64
2023/12/28 08:06:00;;;;;;;9.90;8.65;;;;;;;0.69;100.00;98095.88;1222840;75;2934724;-65
2023/12/28 08:08:32;;;;;;;8.30;7.40;;;;;;;0.95;100.00;98083.69;1222402;75;2937861;-64
2023/12/28 08:11:05;;;;;;;7.90;6.85;;;;;;;0.63;100.00;98087.44;1222679;75;2923519;-65
2023/12/28 08:13:38;;;;;;;10.30;8.35;;;;;;;0.40;100.00;98101.47;1223344;75;2924918;-63
2023/12/28 08:16:11;;;;;;;9.20;7.70;;;;;;;0.81;100.00;98097.31;1222987;75;2925176;-66
2023/12/28 08:18:47;;;;;;;9.70;8.50;;;;;;;0.95;100.00;98107.19;1223721;75;2920284;-64
2023/12/28 08:21:20;;;;;;;8.50;7.60;;;;;;;1.20;100.00;98121.19;1223414;75;2920026;-64
2023/12/28 08:23:52;;;;;;;7.40;6.70;;;;;;;0.85;100.00;98106.13;1223003;75;2932536;-64
2023/12/28 08:26:26;;;;;;;8.00;6.65;;;;;;;0.87;100.00;98100.31;1223666;75;2925165;-64
2023/12/28 08:29:02;;;;;;;8.60;7.60;;;;;;;0.56;100.00;98111.00;680688;75;21548172;-62
2023/12/28 08:31:34;;;;;;;9.30;8.30;;;;;;;0.99;100.00;98107.94;1223912;75;2958934;-68
2023/12/28 08:34:10;;;;;;;9.10;8.00;;;;;;;1.24;100.00;98108.44;1222331;75;2931646;-63
2023/12/28 08:36:43;;;;;;;7.90;7.10;;;;;;;1.27;100.00;98101.47;1222834;75;2925544;-64
2023/12/28 08:39:16;;;;;;;6.85;6.15;;;;;;;1.45;100.00;98112.06;1223543;75;2924258;-63
2023/12/28 08:41:49;;;;;;;8.70;7.00;;;;;;;1.44;100.00;98116.69;1223426;75;2924013;-66
2023/12/28 08:44:21;;;;;;;8.70;7.75;;;;;;;1.46;100.00;98108.19;1223323;75;2931062;-64
2023/12/28 08:46:54;;;;;;;9.35;7.70;;;;;;;1.61;100.00;98114.97;1224178;75;2927307;-64
2023/12/28 08:49:30;;;;;;;8.45;7.40;;;;;;;1.67;100.00;98110.63;1223174;75;2936108;-65
2023/12/28 08:52:03;;;;;;;7.05;6.10;;;;;;;2.21;100.00;98109.91;1223824;75;2924901;-65
2023/12/28 08:54:35;;;;;;;9.90;8.40;;;;;;;1.47;100.00;98118.59;1222828;75;2920974;-63
2023/12/28 08:57:08;;;;;;;9.40;8.40;;;;;;;1.43;100.00;98122.50;1222215;75;2922829;-63
2023/12/28 08:59:41;;;;;;;8.60;7.40;;;;;;;1.89;100.00;98129.25;1223531;75;2923520;-65
2023/12/28 09:02:14;;;;;;;9.00;8.10;;;;;;;2.13;100.00;98116.59;1223866;75;2927927;-64
2023/12/28 09:04:49;;;;;;;6.70;6.05;;;;;;;2.87;100.00;98130.13;1223439;75;2926866;-63
2023/12/28 09:07:22;;;;;;;7.80;6.35;;;;;;;3.33;100.00;98138.63;1223200;75;2923264;-65
2023/12/28 09:09:55;;;;;;;7.15;6.45;;;;;;;3.61;100.00;98132.66;1223832;75;2921690;-68
2023/12/28 09:12:28;;;;;;;6.85;6.10;;;;;;;4.04;100.00;98123.66;1221676;75;2944227;-62
2023/12/28 09:15:01;;;;;;;7.30;6.30;;;;;;;4.89;100.00;98127.53;1222193;75;2919088;-64
2023/12/28 09:17:34;;;;;;;7.20;6.00;;;;;;;5.60;100.00;98124.88;1222513;75;2934225;-64
2023/12/28 09:20:11;;;;;;;6.20;5.40;;;;;;;6.50;100.00;98125.03;1222701;75;2932342;-63
2023/12/28 09:22:45;;;;;;;5.20;4.60;;;;;;;6.90;100.00;98121.78;1222627;75;2923113;-63
2023/12/28 09:25:18;;;;;;;5.60;4.20;;;;;;;7.56;100.00;98121.88;1218910;75;3032042;-64
2023/12/28 09:27:51;;;;;;;6.95;4.65;;;;;;;7.65;89.82;98125.44;1222411;75;2921970;-65
2023/12/28 09:30:24;;;;;;;6.70;5.00;;;;;;;8.15;85.00;98127.50;1220520;75;2944152;-63
2023/12/28 09:32:57;;;;;;;5.45;4.05;;;;;;;8.63;80.42;98117.13;1223944;75;2853354;-66
2023/12/28 09:35:35;;;;;;;7.05;4.30;;;;;;;9.71;73.04;98113.38;1222029;75;2918557;-68
2023/12/28 09:38:08;;;;;;;6.00;4.40;;;;;;;9.48;71.81;98115.53;1222995;75;2925980;-64
2023/12/28 09:40:41;;;;;;;5.50;4.05;;;;;;;10.74;69.53;98104.34;1223017;75;2922844;-65
2023/12/28 09:43:26;;;;;;;5.75;3.95;;;;;;;12.07;60.28;98090.88;1221688;75;2920200;-63
2023/12/28 09:45:58;;;;;;;5.85;4.25;;;;;;;12.22;60.43;98090.88;1222249;75;2921085;-64
2023/12/28 09:48:33;;;;;;;7.65;4.85;;;;;;;11.81;59.95;98095.41;1223092;75;2920896;-67
2023/12/28 09:51:09;;;;;;;5.85;4.45;;;;;;;12.73;58.83;98091.59;1223981;75;2920836;-65
2023/12/28 09:53:42;;;;;;;7.25;5.45;;;;;;;12.99;58.00;98086.16;1219836;75;2920646;-66
2023/12/28 09:56:17;;;;;;;6.15;4.75;;;;;;;14.16;57.46;98090.56;1222529;75;2933143;-65
2023/12/28 09:58:51;;;;;;;5.45;4.20;;;;;;;13.51;55.42;98089.00;1218919;75;3242728;-66
2023/12/28 10:01:25;;;;;;;4.15;3.40;;;;;;;14.59;55.11;98094.13;1222883;75;2925218;-65
2023/12/28 10:03:57;;;;;;;4.60;3.10;;;;;;;15.98;53.31;98091.56;1222614;75;2926224;-65
2023/12/28 10:06:33;;;;;;;3.90;3.30;;;;;;;16.36;50.22;98086.53;1223430;75;2912129;-66
2023/12/28 10:09:07;;;;;;;5.80;4.45;;;;;;;15.18;51.63;98089.91;1223823;75;2923535;-65
2023/12/28 10:11:41;;;;;;;7.10;4.25;;;;;;;16.12;49.82;98079.50;1222309;75;2922133;-67
2023/12/28 10:14:15;;;;;;;7.40;4.15;;;;;;;18.18;45.97;98071.28;1221969;75;2917928;-66
2023/12/28 10:16:47;;;;;;;5.10;3.50;;;;;;;19.80;43.10;98070.66;1221360;75;2928492;-64
2023/12/28 10:19:25;;;;;;;7.45;4.05;;;;;;;21.52;41.27;98069.19;1223530;75;2919050;-64
2023/12/28 10:22:02;;;;;;;4.20;3.50;;;;;;;23.20;39.61;98060.59;1223691;75;2912651;-66
2023/12/28 10:24:35;;;;;;;5.60;3.15;;;;;;;24.30;35.95;98056.13;1223175;75;2919265;-67
2023/12/28 10:27:09;;;;;;;4.10;2.80;;;;;;;25.49;34.30;98047.00;1223645;75;2922080;-66
2023/12/28 10:29:42;;;;;;;3.55;2.40;;;;;;;25.38;34.45;98039.03;1223251;75;2913792;-64
2023/12/28 10:32:14;;;;;;;2.70;2.10;;;;;;;25.67;34.76;98037.34;1222854;75;2923815;-67
2023/12/28 10:34:48;;;;;;;4.30;3.10;;;;;;;24.70;35.05;98037.97;1224730;75;2924124;-64
2023/12/28 10:37:24;;;;;;;3.10;2.50;;;;;;;25.72;32.84;98032.84;1221345;75;2885656;-64
2023/12/28 10:39:58;;;;;;;3.85;2.30;;;;;;;23.85;35.06;98046.41;1221376;75;2925883;-63
2023/12/28 10:42:35;;;;;;;3.20;2.10;;;;;;;23.76;35.59;98044.94;1108902;75;6189990;-64
2023/12/28 10:45:13;;;;;;;3.25;2.40;;;;;;;25.05;33.71;98047.38;1223266;75;2947628;-64
2023/12/28 10:47:50;;;;;;;2.00;1.60;;;;;;;25.13;32.79;98045.28;1224401;75;2923851;-65
2023/12/28 10:50:24;;;;;;;3.90;2.20;;;;;;;26.60;31.35;98036.59;1224365;75;2921105;-64
2023/12/28 10:53:18;;;;;;;9.30;6.35;;;;;;;26.14;33.03;98037.75;1223279;75;2925819;-65
2023/12/28 10:56:04;;;;;;;5.25;3.35;;;;;;;24.99;33.41;98032.81;1223272;75;2937017;-65
2023/12/28 10:58:47;;;;;;;3.50;2.35;;;;;;;26.56;29.15;98025.81;1223204;75;2925223;-67
2023/12/28 11:01:26;;;;;;;4.55;2.15;;;;;;;27.16;28.74;98026.41;1224123;75;2920800;-66
2023/12/28 11:04:08;;;;;;;4.60;3.10;;;;;;;24.93;31.48;98027.44;1223207;75;2926566;-66
2023/12/28 11:06:43;;;;;;;3.20;2.20;;;;;;;27.30;29.42;98028.88;1223131;75;2934095;-69
2023/12/28 11:09:20;;;;;;;4.85;2.70;;;;;;;26.99;29.71;98018.75;1222783;75;2924430;-66
2023/12/28 11:11:54;;;;;;;3.40;2.70;;;;;;;25.97;30.70;98018.81;1225456;83;2929374;-66
2023/12/28 11:14:28;;;;;;;3.60;2.10;;;;;;;26.77;31.38;98014.13;1224894;75;2922526;-66
2023/12/28 11:17:02;;;;;;;3.65;2.25;;;;;;;28.48;28.26;98016.72;1225009;75;2938639;-65
2023/12/28 11:19:37;;;;;;;3.40;2.20;;;;;;;28.99;27.59;98014.81;1224842;75;2945067;-67
2023/12/28 11:22:10;;;;;;;2.90;2.20;;;;;;;27.75;27.60;98013.41;1225183;75;2926749;-69
2023/12/28 11:24:46;;;;;;;2.90;2.10;;;;;;;30.35;26.08;98003.03;1224206;75;2921202;-68
2023/12/28 11:27:19;;;;;;;3.60;2.50;;;;;;;27.27;28.00;98007.56;1224628;75;2938732;-67
2023/12/28 11:29:53;;;;;;;2.75;1.90;;;;;;;29.09;26.68;98007.84;1224912;75;2927035;-66
2023/12/28 11:32:26;;;;;;;4.15;2.40;;;;;;;29.63;26.40;98003.81;1225138;75;2925707;-65
2023/12/28 11:35:02;;;;;;;3.55;2.20;;;;;;;27.11;28.30;98004.19;1224609;75;2927477;-66
2023/12/28 11:37:38;;;;;;;4.70;2.65;;;;;;;26.41;29.57;98001.41;1223427;75;2928086;-65
2023/12/28 11:40:21;;;;;;;4.40;3.00;;;;;;;24.39;31.86;98004.41;1223181;75;2923190;-66